Time;durP1;ratioP1;P1;durP2;ratioP2;P2;SDS_P1;SDS_P2;PMS_P1;PMS_P2;Temp;Humidity;BMP_temperature;BMP_pressure;BME280_temperature;BME280_humidity;BME280_pressure;Samples;Min_cycle;Max_cycle;Signal;HPM_P1;HPM_P2
2023/10/13 00:01:12;;;;;;;;;;;;;;;19.25;61.47;99431.13;10326642;28;852;-73
2023/10/13 00:06:08;;;;;;;;;;;;;;;19.24;61.63;99427.63;10325817;28;1922;-73
2023/10/13 00:11:04;;;;;;;;;;;;;;;19.24;61.55;99429.44;10325620;28;818;-73
2023/10/13 00:16:00;;;;;;;;;;;;;;;19.23;61.58;99420.66;10317224;28;854;-73
2023/10/13 00:20:56;;;;;;;;;;;;;;;19.23;61.46;99420.66;10325559;28;942;-73
2023/10/13 00:25:59;;;;;;;;;;;;;;;19.22;61.40;99407.53;10326785;28;1977;-73
2023/10/13 00:31:03;;;;;;;;;;;;;;;19.22;61.39;99399.59;10325284;28;922;-73
2023/10/13 00:36:00;;;;;;;;;;;;;;;19.21;61.53;99403.19;10325160;28;857;-73
2023/10/13 00:41:03;;;;;;;;;;;;;;;19.20;61.38;99390.88;10325759;28;838;-73
2023/10/13 00:51:02;;;;;;;;;;;;;;;19.19;61.60;99383.91;10334400;28;1361;-73
2023/10/13 00:56:05;;;;;;;;;;;;;;;19.19;61.50;99362.78;10333578;28;854;-74
2023/10/13 01:01:21;;;;;;;;;;;;;;;19.19;61.55;99365.41;10325169;28;882;-73
2023/10/13 01:06:17;;;;;;;;;;;;;;;19.18;61.52;99364.56;10332535;28;2001;-73
2023/10/13 01:11:13;;;;;;;;;;;;;;;19.18;61.51;99369.00;10332339;28;874;-73
2023/10/13 01:16:10;;;;;;;;;;;;;;;19.18;61.48;99359.28;10331550;28;1029;-73
2023/10/13 01:21:06;;;;;;;;;;;;;;;19.16;61.36;99358.50;10332650;28;863;-73
2023/10/13 01:26:05;;;;;;;;;;;;;;;19.17;61.59;99354.06;10331795;28;1894;-73
2023/10/13 01:31:01;;;;;;;;;;;;;;;19.16;61.57;99349.75;10323382;28;898;-73
2023/10/13 01:35:58;;;;;;;;;;;;;;;19.15;61.55;99348.91;10332200;28;894;-73
2023/10/13 01:40:56;;;;;;;;;;;;;;;19.15;61.60;99345.38;10330703;28;923;-73
2023/10/13 01:45:53;;;;;;;;;;;;;;;19.15;61.48;99337.44;10331026;28;1898;-73
2023/10/13 01:50:55;;;;;;;;;;;;;;;19.14;61.49;99318.09;10332436;28;1184;-73
2023/10/13 01:55:51;;;;;;;;;;;;;;;19.13;61.57;99319.06;10331156;28;882;-73
2023/10/13 02:00:47;;;;;;;;;;;;;;;19.14;61.65;99306.69;10330549;28;777;-73
2023/10/13 02:05:51;;;;;;;;;;;;;;;19.13;61.60;99307.66;10330259;28;1910;-73
2023/10/13 02:10:48;;;;;;;;;;;;;;;19.13;61.38;99303.22;10330219;28;958;-73
2023/10/13 02:15:44;;;;;;;;;;;;;;;19.12;61.55;99295.34;10329531;28;826;-73
2023/10/13 02:20:44;;;;;;;;;;;;;;;19.12;61.60;99292.72;10329859;28;766;-73
2023/10/13 02:25:43;;;;;;;;;;;;;;;19.12;61.57;99288.28;10329820;28;1957;-73
2023/10/13 02:30:39;;;;;;;;;;;;;;;19.11;61.46;99280.47;10329494;28;762;-73
2023/10/13 02:35:41;;;;;;;;;;;;;;;19.11;61.54;99267.25;10329280;28;774;-73
2023/10/13 02:40:36;;;;;;;;;;;;;;;19.10;61.61;99262.88;10330035;28;841;-73
2023/10/13 02:45:32;;;;;;;;;;;;;;;19.10;61.57;99249.69;10328828;28;1956;-73
2023/10/13 02:50:32;;;;;;;;;;;;;;;19.09;61.68;99238.25;10329386;28;1206;-74
2023/10/13 02:55:28;;;;;;;;;;;;;;;19.09;61.60;99235.63;10328398;28;1076;-73
2023/10/13 03:00:31;;;;;;;;;;;;;;;19.10;61.48;99239.09;10329375;28;849;-73
2023/10/13 03:05:29;;;;;;;;;;;;;;;19.09;61.61;99226.84;10328100;28;1967;-73
2023/10/13 03:10:28;;;;;;;;;;;;;;;19.09;61.61;99226.84;10326855;28;1132;-73
2023/10/13 03:15:30;;;;;;;;;;;;;;;19.08;61.43;99220.72;10327625;28;940;-73
2023/10/13 03:20:32;;;;;;;;;;;;;;;19.08;61.50;99218.09;10328038;28;877;-73
2023/10/13 03:30:34;;;;;;;;;;;;;;;19.07;61.54;99202.31;10327747;28;809;-73
2023/10/13 03:35:43;;;;;;;;;;;;;;;19.07;61.51;99197.88;10326865;28;887;-73
2023/10/13 03:40:40;;;;;;;;;;;;;;;19.07;61.59;99186.47;10327567;28;867;-73
2023/10/13 03:45:39;;;;;;;;;;;;;;;19.07;61.59;99179.38;10326087;28;1955;-73
2023/10/13 03:50:36;;;;;;;;;;;;;;;19.07;61.60;99175.91;10326153;28;1397;-73
2023/10/13 03:55:35;;;;;;;;;;;;;;;19.05;61.50;99174.19;10325990;28;914;-73
2023/10/13 04:00:31;;;;;;;;;;;;;;;19.05;61.42;99173.34;10325883;28;904;-73
2023/10/13 04:05:45;;;;;;;;;;;;;;;19.04;61.43;99156.63;10326417;28;1973;-73
2023/10/13 04:21:18;;;;;;;;;;;;;;;19.03;61.39;99125.88;10324960;28;605;-73
2023/10/13 04:26:21;;;;;;;;;;;;;;;19.04;61.65;99113.53;10319445;28;1894;-73
2023/10/13 04:31:43;;;;;;;;;;;;;;;19.06;61.49;99103.72;10325447;28;786;-73
2023/10/13 04:41:36;;;;;;;;;;;;;;;19.13;61.26;99093.66;10325161;28;809;-73
2023/10/13 04:46:37;;;;;;;;;;;;;;;19.15;61.16;99079.44;10324791;28;1898;-73
2023/10/13 04:57:22;;;;;;;;;;;;;;;19.18;61.15;99073.13;10325300;28;557;-73
2023/10/13 05:49:40;;;;;;;;;;;;;;;19.34;60.94;99026.31;10330757;28;1882;-74
2023/10/13 06:31:21;;;;;;;;;;;;;;;19.42;61.26;99053.13;10328721;28;683;-69
2023/10/13 06:36:17;;;;;;;;;;;;;;;19.42;61.40;99066.34;10328689;28;883;-69
2023/10/13 06:41:30;;;;;;;;;;;;;;;19.43;61.38;99078.59;10329011;28;757;-69
2023/10/13 06:46:28;;;;;;;;;;;;;;;19.43;61.66;99064.53;10328089;28;1953;-67
2023/10/13 06:51:30;;;;;;;;;;;;;;;19.44;61.60;99050.38;10328461;28;878;-67
2023/10/13 06:56:29;;;;;;;;;;;;;;;19.43;61.79;99033.66;10328801;28;831;-68
2023/10/13 07:01:25;;;;;;;;;;;;;;;19.44;61.81;99024.81;10328014;28;855;-67
2023/10/13 07:06:21;;;;;;;;;;;;;;;19.45;61.66;98997.44;10327378;28;1975;-67
2023/10/13 07:11:31;;;;;;;;;;;;;;;19.44;61.73;98987.81;10325564;28;1113;-67
2023/10/13 07:16:35;;;;;;;;;;;;;;;19.45;61.67;98994.78;10327234;28;851;-67
2023/10/13 07:21:31;;;;;;;;;;;;;;;19.46;61.79;98975.31;10327641;28;899;-69
2023/10/13 07:26:28;;;;;;;;;;;;;;;19.48;61.72;98983.16;10326931;28;1951;-67
2023/10/13 07:31:27;;;;;;;;;;;;;;;19.48;61.51;98981.38;10327004;28;1589;-67
2023/10/13 07:36:33;;;;;;;;;;;;;;;19.49;61.75;98983.09;10327058;28;868;-72
2023/10/13 07:41:32;;;;;;;;;;;;;;;19.51;61.61;98982.97;10326683;28;809;-73
2023/10/13 07:46:31;;;;;;;;;;;;;;;19.53;61.67;98989.03;10325818;28;1894;-73
2023/10/13 07:51:27;;;;;;;;;;;;;;;19.53;61.66;98981.09;10325846;28;817;-73
2023/10/13 07:56:23;;;;;;;;;;;;;;;19.56;61.70;98977.41;10326030;28;961;-72
2023/10/13 08:01:19;;;;;;;;;;;;;;;19.58;61.75;98962.31;10324864;28;924;-72
2023/10/13 08:16:22;;;;;;;;;;;;;;;19.50;61.98;98954.84;10325489;28;770;-72
2023/10/13 08:21:22;;;;;;;;;;;;;;;19.50;61.96;98946.94;10325005;28;858;-72
2023/10/13 08:31:39;;;;;;;;;;;;;;;19.49;62.03;98918.78;10324734;28;821;-72
2023/10/13 08:36:38;;;;;;;;;;;;;;;19.47;61.99;98926.81;10324456;28;787;-72
2023/10/13 08:41:53;;;;;;;;;;;;;;;19.46;62.13;98916.34;10324446;28;945;-72
2023/10/13 08:47:03;;;;;;;;;;;;;;;19.47;62.18;98921.53;10324554;28;1953;-72
2023/10/13 08:52:06;;;;;;;;;;;;;;;19.45;62.31;98912.84;10324421;28;774;-72
2023/10/13 09:02:17;;;;;;;;;;;;;;;19.46;62.08;98914.53;10323793;28;655;-72
2023/10/13 09:07:21;;;;;;;;;;;;;;;19.46;62.20;98896.03;10326875;28;1910;-73
2023/10/13 09:12:19;;;;;;;;;;;;;;;19.45;62.16;98890.88;10331695;28;1168;-72
2023/10/13 09:22:38;;;;;;;;;;;;;;;19.46;62.29;98890.75;10330906;28;811;-72
2023/10/13 09:27:37;;;;;;;;;;;;;;;19.46;62.09;98864.31;10330999;28;1890;-72
2023/10/13 09:32:45;;;;;;;;;;;;;;;19.47;62.18;98873.97;10331687;28;973;-73
2023/10/13 09:37:41;;;;;;;;;;;;;;;19.46;62.27;98871.41;10331719;28;909;-72
2023/10/13 09:42:38;;;;;;;;;;;;;;;19.45;62.14;98877.66;10331282;28;814;-73
2023/10/13 09:47:36;;;;;;;;;;;;;;;19.47;62.08;98865.19;10330512;28;1893;-73
2023/10/13 09:52:32;;;;;;;;;;;;;;;19.48;61.98;98853.66;10330963;28;882;-73
2023/10/13 09:57:34;;;;;;;;;;;;;;;19.46;62.07;98859.03;10330571;28;886;-72
2023/10/13 10:02:30;;;;;;;;;;;;;;;19.47;62.02;98851.97;10329437;28;867;-73
2023/10/13 10:07:29;;;;;;;;;;;;;;;19.47;61.92;98838.75;10330818;28;1918;-73
2023/10/13 10:12:25;;;;;;;;;;;;;;;19.47;61.83;98852.81;10329937;28;898;-73
2023/10/13 10:17:21;;;;;;;;;;;;;;;19.48;61.75;98848.38;10330030;28;856;-72
2023/10/13 10:22:17;;;;;;;;;;;;;;;19.47;61.95;98847.53;10329814;28;803;-73
2023/10/13 10:27:16;;;;;;;;;;;;;;;19.49;61.69;98840.38;10329548;28;1902;-73
2023/10/13 10:32:12;;;;;;;;;;;;;;;19.48;61.64;98841.28;10329126;28;967;-72
2023/10/13 10:37:09;;;;;;;;;;;;;;;19.49;61.70;98850.06;10328439;28;860;-72
2023/10/13 10:42:05;;;;;;;;;;;;;;;19.49;61.62;98834.22;10328655;28;890;-72
2023/10/13 10:47:01;;;;;;;;;;;;;;;19.47;61.68;98839.59;10328005;28;1968;-73
2023/10/13 10:51:58;;;;;;;;;;;;;;;19.49;61.61;98845.66;10329274;28;905;-73
2023/10/13 10:56:53;;;;;;;;;;;;;;;19.49;61.57;98834.22;10328702;28;873;-72
2023/10/13 11:01:52;;;;;;;;;;;;;;;19.48;61.63;98817.50;10327404;28;1208;-72
2023/10/13 11:06:48;;;;;;;;;;;;;;;19.48;61.71;98806.09;10328163;28;1902;-72
2023/10/13 11:11:44;;;;;;;;;;;;;;;19.50;61.54;98783.06;10327928;28;865;-72
2023/10/13 11:16:40;;;;;;;;;;;;;;;19.54;61.61;98796.91;10327286;28;766;-72
2023/10/13 11:21:38;;;;;;;;;;;;;;;19.55;61.66;98796.81;10327293;28;898;-72
2023/10/13 11:26:34;;;;;;;;;;;;;;;19.55;61.62;98778.31;10327257;28;1957;-72
2023/10/13 11:31:29;;;;;;;;;;;;;;;19.57;61.53;98762.34;10326125;28;1574;-73
2023/10/13 11:36:31;;;;;;;;;;;;;;;19.56;61.73;98758.84;10326520;28;960;-72
2023/10/13 11:41:42;;;;;;;;;;;;;;;19.57;61.69;98755.28;10327426;28;857;-72
2023/10/13 11:51:42;;;;;;;;;;;;;;;19.56;61.77;98739.50;10326808;28;798;-72
2023/10/13 11:56:38;;;;;;;;;;;;;;;19.57;61.80;98736.78;10325701;28;924;-72
2023/10/13 12:07:03;;;;;;;;;;;;;;;19.55;61.62;98720.16;10325444;28;1977;-72
2023/10/13 12:12:00;;;;;;;;;;;;;;;19.55;61.72;98714.88;10326732;28;894;-72
2023/10/13 12:17:03;;;;;;;;;;;;;;;19.54;61.68;98697.31;10325728;28;901;-72
2023/10/13 12:22:05;;;;;;;;;;;;;;;19.55;61.74;98711.41;10325671;28;898;-72
2023/10/13 12:27:01;;;;;;;;;;;;;;;19.61;61.34;98679.25;10317575;28;1893;-72
2023/10/13 12:32:08;;;;;;;;;;;;;;;19.60;61.67;98686.34;10326297;28;1028;-74
2023/10/13 12:37:05;;;;;;;;;;;;;;;19.61;61.46;98685.38;10325873;28;854;-74
2023/10/13 12:52:33;;;;;;;;;;;;;;;19.71;61.28;98672.44;10333048;28;695;-73
2023/10/13 12:57:31;;;;;;;;;;;;;;;19.64;61.60;98673.75;10332692;28;767;-71
2023/10/13 13:02:27;;;;;;;;;;;;;;;19.65;61.44;98662.25;10332577;28;873;-73
2023/10/13 13:07:29;;;;;;;;;;;;;;;19.61;61.64;98640.44;10332655;28;1910;-73
2023/10/13 13:12:25;;;;;;;;;;;;;;;19.60;61.67;98651.97;10332409;28;806;-73
2023/10/13 13:17:21;;;;;;;;;;;;;;;19.59;61.54;98652.91;10332179;28;867;-73
2023/10/13 13:22:17;;;;;;;;;;;;;;;19.60;61.71;98657.25;10332573;28;813;-73
2023/10/13 13:27:13;;;;;;;;;;;;;;;19.59;61.72;98665.28;10332453;28;1893;-73
2023/10/13 13:32:24;;;;;;;;;;;;;;;19.58;61.70;98650.41;10332174;28;826;-73
2023/10/13 13:37:20;;;;;;;;;;;;;;;19.57;61.71;98640.75;10331416;28;854;-73
2023/10/13 13:42:17;;;;;;;;;;;;;;;19.57;61.58;98657.47;10330623;28;829;-73
2023/10/13 13:47:13;;;;;;;;;;;;;;;19.57;61.56;98627.53;10331277;28;1894;-72
2023/10/13 13:52:09;;;;;;;;;;;;;;;19.57;61.67;98665.41;10329449;28;878;-73
2023/10/13 13:57:05;;;;;;;;;;;;;;;19.55;61.42;98647.97;10330682;28;934;-73
2023/10/13 14:02:05;;;;;;;;;;;;;;;19.55;61.53;98645.31;10330539;28;813;-73
2023/10/13 14:07:06;;;;;;;;;;;;;;;19.53;61.67;98644.56;10322775;28;1910;-73
2023/10/13 14:17:16;;;;;;;;;;;;;;;19.53;61.77;98640.13;10329543;28;675;-73
2023/10/13 14:22:12;;;;;;;;;;;;;;;19.52;61.68;98632.28;10329826;28;798;-72
2023/10/13 14:27:19;;;;;;;;;;;;;;;19.53;61.52;98626.06;10330764;28;1894;-72
2023/10/13 14:32:15;;;;;;;;;;;;;;;19.55;61.62;98621.53;10329984;28;877;-73
2023/10/13 14:37:14;;;;;;;;;;;;;;;19.61;61.26;98624.59;10329250;28;843;-72
2023/10/13 14:42:10;;;;;;;;;;;;;;;19.62;61.39;98628.06;10329614;28;822;-72
2023/10/13 14:47:08;;;;;;;;;;;;;;;19.66;61.23;98613.69;10328875;28;1902;-72
2023/10/13 14:52:05;;;;;;;;;;;;;;;19.65;61.31;98612.88;10328554;28;839;-72
2023/10/13 14:57:01;;;;;;;;;;;;;;;19.93;60.48;98603.03;10328343;28;926;-72
2023/10/13 15:01:57;;;;;;;;;;;;;;;19.86;60.69;98613.19;10328250;28;791;-72
2023/10/13 15:06:53;;;;;;;;;;;;;;;19.79;61.04;98598.72;10328158;28;1969;-73
2023/10/13 15:11:48;;;;;;;;;;;;;;;19.71;61.39;98601.03;10328629;28;967;-73
2023/10/13 15:16:45;;;;;;;;;;;;;;;19.68;61.42;98601.25;10327094;28;870;-72
2023/10/13 15:21:41;;;;;;;;;;;;;;;19.67;61.61;98581.88;10328470;28;853;-72
2023/10/13 15:26:41;;;;;;;;;;;;;;;19.65;61.59;98594.34;10327336;28;1898;-73
2023/10/13 15:31:37;;;;;;;;;;;;;;;19.64;61.47;98594.44;10326648;28;866;-72
2023/10/13 15:36:33;;;;;;;;;;;;;;;19.62;61.56;98599.88;10327014;28;901;-72
2023/10/13 15:41:29;;;;;;;;;;;;;;;19.60;61.31;98600.91;10327444;28;853;-72
2023/10/13 15:46:25;;;;;;;;;;;;;;;19.60;61.44;98587.69;10324067;28;1959;-72
2023/10/13 15:51:21;;;;;;;;;;;;;;;19.59;61.21;98592.13;10325196;28;814;-73
2023/10/13 15:56:17;;;;;;;;;;;;;;;19.58;61.23;98581.66;10326319;28;787;-73
2023/10/13 16:01:13;;;;;;;;;;;;;;;19.58;61.22;98576.38;10327206;28;842;-73
2023/10/13 16:06:11;;;;;;;;;;;;;;;19.58;61.06;98587.78;10326631;28;1918;-74
2023/10/13 16:11:07;;;;;;;;;;;;;;;19.58;61.02;98581.66;10325990;28;900;-73
2023/10/13 16:16:03;;;;;;;;;;;;;;;19.58;61.18;98587.78;10325385;28;929;-72
2023/10/13 16:21:00;;;;;;;;;;;;;;;19.58;61.14;98594.88;10325631;28;862;-75
2023/10/13 16:25:58;;;;;;;;;;;;;;;19.57;61.17;98590.53;10325469;28;1898;-74
2023/10/13 16:30:55;;;;;;;;;;;;;;;19.56;61.09;98583.56;10325323;28;887;-74
2023/10/13 16:35:53;;;;;;;;;;;;;;;19.55;60.95;98580.09;10325366;28;863;-74
2023/10/13 16:40:49;;;;;;;;;;;;;;;19.56;60.87;98588.84;10325403;28;887;-74
2023/10/13 16:45:45;;;;;;;;;;;;;;;19.56;60.87;98594.13;10325109;28;1898;-74
2023/10/13 16:50:41;;;;;;;;;;;;;;;19.55;60.72;98573.97;10325625;28;1287;-74
2023/10/13 16:55:37;;;;;;;;;;;;;;;19.55;60.63;98573.97;10324977;28;861;-75
2023/10/13 17:00:33;;;;;;;;;;;;;;;19.54;60.58;98578.38;10325556;28;879;-74
2023/10/13 17:05:30;;;;;;;;;;;;;;;19.55;60.64;98568.66;10325358;28;1910;-75
2023/10/13 17:10:28;;;;;;;;;;;;;;;19.54;60.57;98567.78;10324654;28;886;-74
2023/10/13 17:15:24;;;;;;;;;;;;;;;19.52;60.75;98553.00;10325153;28;820;-69
2023/10/13 17:20:20;;;;;;;;;;;;;;;19.53;60.51;98567.91;10324500;28;866;-74
2023/10/13 17:25:16;;;;;;;;;;;;;;;19.52;60.61;98558.28;10324933;28;1958;-74
2023/10/13 17:30:12;;;;;;;;;;;;;;;19.53;60.62;98565.28;10329194;28;911;-74
2023/10/13 17:35:11;;;;;;;;;;;;;;;19.52;60.61;98555.66;10331807;28;778;-74
2023/10/13 17:40:07;;;;;;;;;;;;;;;19.51;60.54;98560.09;10331541;28;827;-74
2023/10/13 17:45:05;;;;;;;;;;;;;;;19.52;60.70;98553.00;10331986;28;1894;-75
2023/10/13 17:50:02;;;;;;;;;;;;;;;19.53;60.60;98550.25;10331640;28;1380;-71
2023/10/13 17:54:58;;;;;;;;;;;;;;;19.53;60.67;98537.06;10331403;28;774;-72
2023/10/13 17:59:53;;;;;;;;;;;;;;;19.53;60.53;98550.25;10331548;28;882;-72
2023/10/13 18:04:49;;;;;;;;;;;;;;;19.52;60.61;98510.72;10330769;28;948;-72
2023/10/13 18:09:45;;;;;;;;;;;;;;;19.51;60.46;98515.16;10331152;28;1914;-72
2023/10/13 18:14:41;;;;;;;;;;;;;;;19.53;60.58;98521.19;10331040;28;944;-72
2023/10/13 18:19:38;;;;;;;;;;;;;;;19.52;60.45;98497.50;10329625;28;873;-72
2023/10/13 18:24:35;;;;;;;;;;;;;;;19.55;60.27;98500.78;10330031;28;878;-72
2023/10/13 18:29:32;;;;;;;;;;;;;;;19.52;60.22;98503.66;10330333;28;1874;-72
2023/10/13 18:34:28;;;;;;;;;;;;;;;19.54;60.31;98503.53;10329823;28;774;-72
2023/10/13 18:39:32;;;;;;;;;;;;;;;19.53;60.39;98481.53;10329217;28;896;-72
2023/10/13 18:44:28;;;;;;;;;;;;;;;19.52;60.50;98471.06;10328661;28;1221;-72
2023/10/13 18:49:24;;;;;;;;;;;;;;;19.51;60.36;98467.59;10328316;28;1917;-72
2023/10/13 18:54:20;;;;;;;;;;;;;;;19.51;60.26;98467.59;10329408;28;926;-73
2023/10/13 18:59:18;;;;;;;;;;;;;;;19.53;60.10;98460.41;10328562;28;874;-72
2023/10/13 19:04:14;;;;;;;;;;;;;;;19.53;60.25;98470.13;10328389;28;870;-72
2023/10/13 19:09:10;;;;;;;;;;;;;;;19.52;60.32;98457.84;10328760;28;1898;-72
2023/10/13 19:14:10;;;;;;;;;;;;;;;19.54;60.11;98471.81;10327967;28;863;-72
2023/10/13 19:19:05;;;;;;;;;;;;;;;19.54;60.24;98466.53;10327798;28;756;-72
2023/10/13 19:24:02;;;;;;;;;;;;;;;19.54;60.38;98463.88;10327597;28;981;-72
2023/10/13 19:28:58;;;;;;;;;;;;;;;19.53;60.12;98443.72;10327292;28;1898;-69
2023/10/13 19:33:54;;;;;;;;;;;;;;;19.54;60.36;98455.94;10327224;28;944;-72
2023/10/13 19:38:51;;;;;;;;;;;;;;;19.53;60.41;98418.13;10328338;28;898;-72
2023/10/13 19:43:46;;;;;;;;;;;;;;;19.54;60.51;98400.44;10327355;28;875;-72
2023/10/13 19:48:42;;;;;;;;;;;;;;;19.53;60.38;98375.00;10327047;28;1902;-72
2023/10/13 19:53:38;;;;;;;;;;;;;;;19.55;60.36;98378.38;10325261;28;1401;-73
2023/10/13 19:58:35;;;;;;;;;;;;;;;19.55;60.25;98365.16;10327616;28;885;-73
2023/10/13 20:03:32;;;;;;;;;;;;;;;19.55;60.25;98370.44;10325546;28;1306;-72
2023/10/13 20:08:28;;;;;;;;;;;;;;;19.53;60.39;98353.84;10325949;28;1906;-72
2023/10/13 20:13:24;;;;;;;;;;;;;;;19.54;60.57;98379.31;10326270;28;817;-72
2023/10/13 20:18:20;;;;;;;;;;;;;;;19.55;60.52;98391.59;10326405;28;893;-72
2023/10/13 20:23:15;;;;;;;;;;;;;;;19.55;60.48;98365.16;10326273;28;864;-73
2023/10/13 20:28:13;;;;;;;;;;;;;;;19.54;60.44;98374.03;10325503;28;1878;-72
2023/10/13 20:33:09;;;;;;;;;;;;;;;19.54;60.65;98377.50;10325398;28;1005;-73
2023/10/13 20:38:06;;;;;;;;;;;;;;;19.54;60.51;98385.44;10325355;28;922;-73
2023/10/13 20:43:02;;;;;;;;;;;;;;;19.54;60.33;98371.38;10325874;28;767;-72
2023/10/13 20:47:58;;;;;;;;;;;;;;;19.56;60.58;98361.56;10325530;28;1898;-72
2023/10/13 20:52:54;;;;;;;;;;;;;;;19.55;60.45;98367.81;10324453;28;1103;-72
2023/10/13 20:57:50;;;;;;;;;;;;;;;19.55;60.49;98371.28;10325652;28;830;-72
2023/10/13 21:02:47;;;;;;;;;;;;;;;19.55;60.49;98373.09;10328311;28;783;-72
2023/10/13 21:07:42;;;;;;;;;;;;;;;19.54;60.70;98369.56;10332890;28;1972;-72
2023/10/13 21:12:38;;;;;;;;;;;;;;;19.55;60.64;98362.50;10333476;28;868;-72
2023/10/13 21:17:34;;;;;;;;;;;;;;;19.54;60.68;98369.56;10332487;28;768;-72
2023/10/13 21:22:30;;;;;;;;;;;;;;;19.53;60.79;98365.25;10332380;28;782;-72
2023/10/13 21:27:26;;;;;;;;;;;;;;;19.54;60.85;98331.75;10332688;28;1894;-72
2023/10/13 21:32:22;;;;;;;;;;;;;;;19.53;60.85;98322.13;10331909;28;964;-72
2023/10/13 21:37:18;;;;;;;;;;;;;;;19.52;60.96;98299.28;10332419;28;1005;-72
2023/10/13 21:42:14;;;;;;;;;;;;;;;19.52;60.94;98286.06;10331638;28;810;-72
2023/10/13 21:47:11;;;;;;;;;;;;;;;19.51;61.03;98276.47;10331359;28;1894;-72
2023/10/13 21:52:08;;;;;;;;;;;;;;;19.51;60.98;98265.91;10331185;28;918;-72
2023/10/13 21:57:04;;;;;;;;;;;;;;;19.50;61.04;98251.84;10331694;28;903;-72
2023/10/13 22:02:00;;;;;;;;;;;;;;;19.50;61.02;98262.41;10330902;28;860;-72
2023/10/13 22:06:59;;;;;;;;;;;;;;;19.50;61.07;98249.22;10331265;28;1973;-72
2023/10/13 22:11:55;;;;;;;;;;;;;;;19.49;61.11;98269.50;10331521;28;889;-72
2023/10/13 22:16:53;;;;;;;;;;;;;;;19.48;61.16;98251.94;10329795;28;839;-72
2023/10/13 22:21:51;;;;;;;;;;;;;;;19.49;61.20;98263.34;10330201;28;855;-72
2023/10/13 22:26:47;;;;;;;;;;;;;;;19.48;61.24;98257.22;10330476;28;1897;-72
2023/10/13 22:31:43;;;;;;;;;;;;;;;19.48;61.35;98254.59;10330406;28;882;-72
2023/10/13 22:36:40;;;;;;;;;;;;;;;19.48;61.08;98256.41;10330200;28;872;-72
2023/10/13 22:41:35;;;;;;;;;;;;;;;19.48;61.22;98256.41;10329421;28;803;-72
2023/10/13 22:46:31;;;;;;;;;;;;;;;19.47;61.09;98250.28;10328342;28;1894;-72
2023/10/13 22:51:27;;;;;;;;;;;;;;;19.47;61.16;98250.28;10329088;28;932;-72
2023/10/13 22:56:23;;;;;;;;;;;;;;;19.47;61.23;98250.28;10328804;28;865;-72
2023/10/13 23:01:20;;;;;;;;;;;;;;;19.46;61.25;98221.31;10328609;28;863;-72
2023/10/13 23:06:20;;;;;;;;;;;;;;;19.46;61.27;98208.94;10328243;28;1910;-72
2023/10/13 23:11:21;;;;;;;;;;;;;;;19.45;61.38;98223.13;10328134;28;1612;-72
2023/10/13 23:16:17;;;;;;;;;;;;;;;19.46;61.33;98218.66;10327877;28;823;-72
2023/10/13 23:21:13;;;;;;;;;;;;;;;19.46;61.37;98216.03;10327803;28;842;-72
2023/10/13 23:26:14;;;;;;;;;;;;;;;19.44;61.27;98179.16;10326493;28;1894;-72
2023/10/13 23:31:10;;;;;;;;;;;;;;;19.45;61.32;98194.03;10327980;28;845;-72
2023/10/13 23:36:07;;;;;;;;;;;;;;;19.45;61.31;98183.47;10327765;28;821;-72
2023/10/13 23:41:05;;;;;;;;;;;;;;;19.45;61.30;98167.63;10327638;28;771;-72
2023/10/13 23:46:04;;;;;;;;;;;;;;;19.45;61.25;98172.06;10326758;28;1898;-72
2023/10/13 23:51:00;;;;;;;;;;;;;;;19.44;61.21;98160.66;10319310;28;1015;-72
2023/10/13 23:56:00;;;;;;;;;;;;;;;19.46;61.35;98165.81;10326480;28;818;-72
